sensor_id;sensor_type;location;lat;lon;timestamp;temperature;humidity
6879;DHT22;3478;51.462;7.338;2024-01-30T00:02:40;9.10;99.90
6879;DHT22;3478;51.462;7.338;2024-01-30T00:07:45;9.10;99.90
6879;DHT22;3478;51.462;7.338;2024-01-30T00:12:47;9.10;99.90
6879;DHT22;3478;51.462;7.338;2024-01-30T00:17:48;9.10;99.90
6879;DHT22;3478;51.462;7.338;2024-01-30T00:22:54;9.00;99.90
6879;DHT22;3478;51.462;7.338;2024-01-30T00:27:56;9.00;99.90
6879;DHT22;3478;51.462;7.338;2024-01-30T00:32:58;8.90;99.90
6879;DHT22;3478;51.462;7.338;2024-01-30T00:38:01;8.90;99.90
6879;DHT22;3478;51.462;7.338;2024-01-30T00:43:03;8.90;99.90
6879;DHT22;3478;51.462;7.338;2024-01-30T00:48:06;8.90;99.90
6879;DHT22;3478;51.462;7.338;2024-01-30T00:53:09;8.90;99.90
6879;DHT22;3478;51.462;7.338;2024-01-30T00:58:11;8.80;99.90
6879;DHT22;3478;51.462;7.338;2024-01-30T01:03:13;8.80;99.90
6879;DHT22;3478;51.462;7.338;2024-01-30T01:08:17;8.80;99.90
6879;DHT22;3478;51.462;7.338;2024-01-30T01:13:18;8.80;99.90
6879;DHT22;3478;51.462;7.338;2024-01-30T01:18:20;8.80;99.90
6879;DHT22;3478;51.462;7.338;2024-01-30T01:23:23;8.80;99.90
6879;DHT22;3478;51.462;7.338;2024-01-30T01:28:25;8.70;99.90
6879;DHT22;3478;51.462;7.338;2024-01-30T01:33:27;8.70;99.90
6879;DHT22;3478;51.462;7.338;2024-01-30T01:38:31;8.70;99.90
6879;DHT22;3478;51.462;7.338;2024-01-30T01:43:32;8.70;99.90
6879;DHT22;3478;51.462;7.338;2024-01-30T01:48:35;8.70;99.90
6879;DHT22;3478;51.462;7.338;2024-01-30T01:53:38;8.70;99.90
6879;DHT22;3478;51.462;7.338;2024-01-30T01:58:40;8.60;99.90
6879;DHT22;3478;51.462;7.338;2024-01-30T02:03:42;8.60;99.90
6879;DHT22;3478;51.462;7.338;2024-01-30T02:08:46;8.60;99.90
6879;DHT22;3478;51.462;7.338;2024-01-30T02:13:47;8.60;99.90
6879;DHT22;3478;51.462;7.338;2024-01-30T02:18:49;8.60;99.90
6879;DHT22;3478;51.462;7.338;2024-01-30T02:23:53;8.60;99.90
6879;DHT22;3478;51.462;7.338;2024-01-30T02:28:56;8.60;99.90
6879;DHT22;3478;51.462;7.338;2024-01-30T02:33:58;8.60;99.90
6879;DHT22;3478;51.462;7.338;2024-01-30T02:39:01;8.60;99.90
6879;DHT22;3478;51.462;7.338;2024-01-30T02:44:03;8.50;99.90
6879;DHT22;3478;51.462;7.338;2024-01-30T02:49:05;8.50;99.90
6879;DHT22;3478;51.462;7.338;2024-01-30T02:54:08;8.60;99.90
6879;DHT22;3478;51.462;7.338;2024-01-30T02:59:10;8.60;99.90
6879;DHT22;3478;51.462;7.338;2024-01-30T03:04:12;8.60;99.90
6879;DHT22;3478;51.462;7.338;2024-01-30T03:09:16;8.60;99.90
6879;DHT22;3478;51.462;7.338;2024-01-30T03:14:18;8.60;99.90
6879;DHT22;3478;51.462;7.338;2024-01-30T03:19:19;8.70;99.90
6879;DHT22;3478;51.462;7.338;2024-01-30T03:24:23;8.70;99.90
6879;DHT22;3478;51.462;7.338;2024-01-30T03:29:24;8.70;99.90
6879;DHT22;3478;51.462;7.338;2024-01-30T03:34:26;8.70;99.90
6879;DHT22;3478;51.462;7.338;2024-01-30T03:39:30;8.80;99.90
6879;DHT22;3478;51.462;7.338;2024-01-30T03:44:32;8.80;99.90
6879;DHT22;3478;51.462;7.338;2024-01-30T03:49:34;8.80;99.90
6879;DHT22;3478;51.462;7.338;2024-01-30T03:54:37;8.80;99.90
6879;DHT22;3478;51.462;7.338;2024-01-30T03:59:41;8.80;99.90
6879;DHT22;3478;51.462;7.338;2024-01-30T04:04:43;8.80;99.90
6879;DHT22;3478;51.462;7.338;2024-01-30T04:09:46;8.70;99.90
6879;DHT22;3478;51.462;7.338;2024-01-30T04:14:48;8.70;99.90
6879;DHT22;3478;51.462;7.338;2024-01-30T04:19:50;8.70;99.90
6879;DHT22;3478;51.462;7.338;2024-01-30T04:24:53;8.70;99.90
6879;DHT22;3478;51.462;7.338;2024-01-30T04:29:55;8.70;99.90
6879;DHT22;3478;51.462;7.338;2024-01-30T04:34:57;8.70;99.90
6879;DHT22;3478;51.462;7.338;2024-01-30T04:40:00;8.60;99.90
6879;DHT22;3478;51.462;7.338;2024-01-30T04:45:03;8.60;99.90
6879;DHT22;3478;51.462;7.338;2024-01-30T04:50:07;8.60;99.90
6879;DHT22;3478;51.462;7.338;2024-01-30T04:55:10;8.70;99.90
6879;DHT22;3478;51.462;7.338;2024-01-30T05:00:13;8.80;99.90
6879;DHT22;3478;51.462;7.338;2024-01-30T05:05:16;8.70;99.90
6879;DHT22;3478;51.462;7.338;2024-01-30T05:10:19;8.80;99.90
6879;DHT22;3478;51.462;7.338;2024-01-30T05:15:21;8.70;99.90
6879;DHT22;3478;51.462;7.338;2024-01-30T05:20:23;8.70;99.90
6879;DHT22;3478;51.462;7.338;2024-01-30T05:25:29;8.70;99.90
6879;DHT22;3478;51.462;7.338;2024-01-30T05:30:31;8.70;99.90
6879;DHT22;3478;51.462;7.338;2024-01-30T05:35:33;8.70;99.90
6879;DHT22;3478;51.462;7.338;2024-01-30T05:40:36;8.70;99.90
6879;DHT22;3478;51.462;7.338;2024-01-30T05:45:38;8.60;99.90
6879;DHT22;3478;51.462;7.338;2024-01-30T05:50:40;8.60;99.90
6879;DHT22;3478;51.462;7.338;2024-01-30T05:55:43;8.60;99.90
6879;DHT22;3478;51.462;7.338;2024-01-30T06:00:45;8.60;99.90
6879;DHT22;3478;51.462;7.338;2024-01-30T06:05:47;8.70;99.90
6879;DHT22;3478;51.462;7.338;2024-01-30T06:10:50;8.70;99.90
6879;DHT22;3478;51.462;7.338;2024-01-30T06:15:52;8.80;99.90
6879;DHT22;3478;51.462;7.338;2024-01-30T06:20:54;8.70;99.90
6879;DHT22;3478;51.462;7.338;2024-01-30T06:25:57;8.80;99.90
6879;DHT22;3478;51.462;7.338;2024-01-30T06:31:01;8.80;99.90
6879;DHT22;3478;51.462;7.338;2024-01-30T06:36:03;8.80;99.90
6879;DHT22;3478;51.462;7.338;2024-01-30T06:41:06;8.80;99.90
6879;DHT22;3478;51.462;7.338;2024-01-30T06:46:08;8.80;99.90
6879;DHT22;3478;51.462;7.338;2024-01-30T06:51:10;8.80;99.90
6879;DHT22;3478;51.462;7.338;2024-01-30T06:56:13;8.80;99.90
6879;DHT22;3478;51.462;7.338;2024-01-30T07:01:15;8.80;99.90
6879;DHT22;3478;51.462;7.338;2024-01-30T07:06:17;8.80;99.90
6879;DHT22;3478;51.462;7.338;2024-01-30T07:11:21;8.90;99.90
6879;DHT22;3478;51.462;7.338;2024-01-30T07:16:24;9.00;99.90
6879;DHT22;3478;51.462;7.338;2024-01-30T07:21:26;9.00;99.90
6879;DHT22;3478;51.462;7.338;2024-01-30T07:26:30;9.00;99.90
6879;DHT22;3478;51.462;7.338;2024-01-30T07:31:32;9.00;99.90
6879;DHT22;3478;51.462;7.338;2024-01-30T07:36:34;9.00;99.90
6879;DHT22;3478;51.462;7.338;2024-01-30T07:41:37;9.10;99.90
6879;DHT22;3478;51.462;7.338;2024-01-30T07:46:39;9.10;99.90
6879;DHT22;3478;51.462;7.338;2024-01-30T07:51:40;9.10;99.90
6879;DHT22;3478;51.462;7.338;2024-01-30T07:56:45;9.20;99.90
6879;DHT22;3478;51.462;7.338;2024-01-30T08:01:46;9.20;99.90
6879;DHT22;3478;51.462;7.338;2024-01-30T08:06:48;9.30;99.90
6879;DHT22;3478;51.462;7.338;2024-01-30T08:11:51;9.30;99.90
6879;DHT22;3478;51.462;7.338;2024-01-30T08:16:53;9.40;99.90
6879;DHT22;3478;51.462;7.338;2024-01-30T08:21:55;9.50;99.90
6879;DHT22;3478;51.462;7.338;2024-01-30T08:26:59;9.50;99.90
6879;DHT22;3478;51.462;7.338;2024-01-30T08:32:04;9.50;99.90
6879;DHT22;3478;51.462;7.338;2024-01-30T08:37:06;9.60;99.90
6879;DHT22;3478;51.462;7.338;2024-01-30T08:42:09;9.60;99.90
6879;DHT22;3478;51.462;7.338;2024-01-30T08:47:11;9.70;99.90
6879;DHT22;3478;51.462;7.338;2024-01-30T08:52:13;9.80;99.90
6879;DHT22;3478;51.462;7.338;2024-01-30T08:57:16;9.80;99.90
6879;DHT22;3478;51.462;7.338;2024-01-30T09:02:18;9.90;99.90
6879;DHT22;3478;51.462;7.338;2024-01-30T09:07:19;10.00;99.90
6879;DHT22;3478;51.462;7.338;2024-01-30T09:12:23;10.00;99.90
6879;DHT22;3478;51.462;7.338;2024-01-30T09:17:24;10.10;99.90
6879;DHT22;3478;51.462;7.338;2024-01-30T09:22:26;10.20;99.90
6879;DHT22;3478;51.462;7.338;2024-01-30T09:27:29;10.30;99.90
6879;DHT22;3478;51.462;7.338;2024-01-30T09:32:31;10.40;99.90
6879;DHT22;3478;51.462;7.338;2024-01-30T09:37:33;10.50;99.90
6879;DHT22;3478;51.462;7.338;2024-01-30T09:42:37;10.50;99.90
6879;DHT22;3478;51.462;7.338;2024-01-30T09:47:40;10.50;99.90
6879;DHT22;3478;51.462;7.338;2024-01-30T09:52:44;10.50;99.90
6879;DHT22;3478;51.462;7.338;2024-01-30T09:57:47;10.50;99.90
6879;DHT22;3478;51.462;7.338;2024-01-30T10:02:49;10.70;99.90
6879;DHT22;3478;51.462;7.338;2024-01-30T10:07:53;10.80;99.90
6879;DHT22;3478;51.462;7.338;2024-01-30T10:12:56;10.90;99.90
6879;DHT22;3478;51.462;7.338;2024-01-30T10:17:58;10.90;99.90
6879;DHT22;3478;51.462;7.338;2024-01-30T10:23:00;11.00;99.90
6879;DHT22;3478;51.462;7.338;2024-01-30T10:28:04;11.10;99.90
6879;DHT22;3478;51.462;7.338;2024-01-30T10:33:06;11.40;99.90
6879;DHT22;3478;51.462;7.338;2024-01-30T10:38:11;11.90;99.90
6879;DHT22;3478;51.462;7.338;2024-01-30T10:43:20;11.90;99.90
6879;DHT22;3478;51.462;7.338;2024-01-30T10:48:29;11.80;99.90
6879;DHT22;3478;51.462;7.338;2024-01-30T10:53:31;11.80;99.90
6879;DHT22;3478;51.462;7.338;2024-01-30T10:58:35;11.90;99.90
6879;DHT22;3478;51.462;7.338;2024-01-30T11:03:37;12.00;99.90
6879;DHT22;3478;51.462;7.338;2024-01-30T11:08:39;12.30;99.90
6879;DHT22;3478;51.462;7.338;2024-01-30T11:13:43;12.60;99.90
6879;DHT22;3478;51.462;7.338;2024-01-30T11:18:50;13.00;99.90
6879;DHT22;3478;51.462;7.338;2024-01-30T11:23:52;13.20;99.90
6879;DHT22;3478;51.462;7.338;2024-01-30T11:28:58;13.50;99.90
6879;DHT22;3478;51.462;7.338;2024-01-30T11:34:00;13.50;99.90
6879;DHT22;3478;51.462;7.338;2024-01-30T11:39:02;13.50;99.90
6879;DHT22;3478;51.462;7.338;2024-01-30T11:44:06;13.50;99.90
6879;DHT22;3478;51.462;7.338;2024-01-30T11:49:08;13.30;99.90
6879;DHT22;3478;51.462;7.338;2024-01-30T11:54:10;13.00;99.90
6879;DHT22;3478;51.462;7.338;2024-01-30T11:59:14;12.80;99.90
6879;DHT22;3478;51.462;7.338;2024-01-30T12:04:16;12.80;99.90
6879;DHT22;3478;51.462;7.338;2024-01-30T12:09:18;12.70;99.90
6879;DHT22;3478;51.462;7.338;2024-01-30T12:14:22;12.50;99.90
6879;DHT22;3478;51.462;7.338;2024-01-30T12:19:26;12.60;99.90
6879;DHT22;3478;51.462;7.338;2024-01-30T12:24:28;12.50;99.90
6879;DHT22;3478;51.462;7.338;2024-01-30T12:29:33;12.40;99.90
6879;DHT22;3478;51.462;7.338;2024-01-30T12:34:40;12.30;99.90
6879;DHT22;3478;51.462;7.338;2024-01-30T12:39:43;12.30;99.90
6879;DHT22;3478;51.462;7.338;2024-01-30T12:44:46;12.20;99.90
6879;DHT22;3478;51.462;7.338;2024-01-30T12:49:48;12.10;99.90
6879;DHT22;3478;51.462;7.338;2024-01-30T12:54:54;12.00;99.90
6879;DHT22;3478;51.462;7.338;2024-01-30T12:59:57;12.10;99.90
6879;DHT22;3478;51.462;7.338;2024-01-30T13:04:59;12.00;99.90
6879;DHT22;3478;51.462;7.338;2024-01-30T13:10:02;12.10;99.90
6879;DHT22;3478;51.462;7.338;2024-01-30T13:15:06;12.10;99.90
6879;DHT22;3478;51.462;7.338;2024-01-30T13:20:09;12.00;99.90
6879;DHT22;3478;51.462;7.338;2024-01-30T13:25:12;12.00;99.90
6879;DHT22;3478;51.462;7.338;2024-01-30T13:30:15;11.90;99.90
6879;DHT22;3478;51.462;7.338;2024-01-30T13:35:17;11.90;99.90
6879;DHT22;3478;51.462;7.338;2024-01-30T13:40:19;11.90;99.90
6879;DHT22;3478;51.462;7.338;2024-01-30T13:45:24;11.80;99.90
6879;DHT22;3478;51.462;7.338;2024-01-30T13:50:26;11.80;99.90
6879;DHT22;3478;51.462;7.338;2024-01-30T13:55:27;11.70;99.90
6879;DHT22;3478;51.462;7.338;2024-01-30T14:00:31;11.70;99.90
6879;DHT22;3478;51.462;7.338;2024-01-30T14:05:32;11.60;99.90
6879;DHT22;3478;51.462;7.338;2024-01-30T14:10:35;11.60;99.90
6879;DHT22;3478;51.462;7.338;2024-01-30T14:15:38;11.60;99.90
6879;DHT22;3478;51.462;7.338;2024-01-30T14:20:40;11.50;99.90
6879;DHT22;3478;51.462;7.338;2024-01-30T14:25:42;11.50;99.90
6879;DHT22;3478;51.462;7.338;2024-01-30T14:30:46;11.50;99.90
6879;DHT22;3478;51.462;7.338;2024-01-30T14:35:48;11.50;99.90
6879;DHT22;3478;51.462;7.338;2024-01-30T14:40:50;11.60;99.90
6879;DHT22;3478;51.462;7.338;2024-01-30T14:45:53;11.60;99.90
6879;DHT22;3478;51.462;7.338;2024-01-30T14:50:55;11.60;99.90
6879;DHT22;3478;51.462;7.338;2024-01-30T14:55:57;11.70;99.90
6879;DHT22;3478;51.462;7.338;2024-01-30T15:01:00;11.70;99.90
6879;DHT22;3478;51.462;7.338;2024-01-30T15:06:02;11.60;99.90
6879;DHT22;3478;51.462;7.338;2024-01-30T15:11:05;11.60;99.90
6879;DHT22;3478;51.462;7.338;2024-01-30T15:16:08;11.60;99.90
6879;DHT22;3478;51.462;7.338;2024-01-30T15:21:10;11.60;99.90
6879;DHT22;3478;51.462;7.338;2024-01-30T15:26:12;11.60;99.90
6879;DHT22;3478;51.462;7.338;2024-01-30T15:31:16;11.60;99.90
6879;DHT22;3478;51.462;7.338;2024-01-30T15:36:17;11.60;99.90
6879;DHT22;3478;51.462;7.338;2024-01-30T15:41:19;11.50;99.90
6879;DHT22;3478;51.462;7.338;2024-01-30T15:46:23;11.50;99.90
6879;DHT22;3478;51.462;7.338;2024-01-30T15:51:24;11.40;99.90
6879;DHT22;3478;51.462;7.338;2024-01-30T15:56:26;11.30;99.90
6879;DHT22;3478;51.462;7.338;2024-01-30T16:01:30;11.20;99.90
6879;DHT22;3478;51.462;7.338;2024-01-30T16:06:31;11.20;99.90
6879;DHT22;3478;51.462;7.338;2024-01-30T16:11:34;11.10;99.90
6879;DHT22;3478;51.462;7.338;2024-01-30T16:16:38;11.10;99.90
6879;DHT22;3478;51.462;7.338;2024-01-30T16:21:41;11.00;99.90
6879;DHT22;3478;51.462;7.338;2024-01-30T16:26:44;10.80;99.90
6879;DHT22;3478;51.462;7.338;2024-01-30T16:31:49;10.70;99.90
6879;DHT22;3478;51.462;7.338;2024-01-30T16:36:51;10.70;99.90
6879;DHT22;3478;51.462;7.338;2024-01-30T16:41:52;10.60;99.90
6879;DHT22;3478;51.462;7.338;2024-01-30T16:46:56;10.50;99.90
6879;DHT22;3478;51.462;7.338;2024-01-30T16:51:57;10.40;99.90
6879;DHT22;3478;51.462;7.338;2024-01-30T16:56:59;10.40;99.90
6879;DHT22;3478;51.462;7.338;2024-01-30T17:02:03;10.30;99.90
6879;DHT22;3478;51.462;7.338;2024-01-30T17:07:04;10.30;99.90
6879;DHT22;3478;51.462;7.338;2024-01-30T17:12:07;10.30;99.90
6879;DHT22;3478;51.462;7.338;2024-01-30T17:17:10;10.30;99.90
6879;DHT22;3478;51.462;7.338;2024-01-30T17:22:12;10.20;99.90
6879;DHT22;3478;51.462;7.338;2024-01-30T17:27:14;10.10;99.90
6879;DHT22;3478;51.462;7.338;2024-01-30T17:32:17;10.00;99.90
6879;DHT22;3478;51.462;7.338;2024-01-30T17:37:19;9.90;99.90
6879;DHT22;3478;51.462;7.338;2024-01-30T17:42:21;9.80;99.90
6879;DHT22;3478;51.462;7.338;2024-01-30T17:47:25;9.80;99.90
6879;DHT22;3478;51.462;7.338;2024-01-30T17:52:27;9.80;99.90
6879;DHT22;3478;51.462;7.338;2024-01-30T17:57:29;9.80;99.90
6879;DHT22;3478;51.462;7.338;2024-01-30T18:02:32;9.80;99.90
6879;DHT22;3478;51.462;7.338;2024-01-30T18:07:34;9.80;99.90
6879;DHT22;3478;51.462;7.338;2024-01-30T18:12:39;9.70;99.90
6879;DHT22;3478;51.462;7.338;2024-01-30T18:17:43;9.70;99.90
6879;DHT22;3478;51.462;7.338;2024-01-30T18:22:45;9.60;99.90
6879;DHT22;3478;51.462;7.338;2024-01-30T18:27:47;9.60;99.90
6879;DHT22;3478;51.462;7.338;2024-01-30T18:32:52;9.40;99.90
6879;DHT22;3478;51.462;7.338;2024-01-30T18:37:54;9.20;99.90
6879;DHT22;3478;51.462;7.338;2024-01-30T18:42:55;9.20;99.90
6879;DHT22;3478;51.462;7.338;2024-01-30T18:48:02;9.10;99.90
6879;DHT22;3478;51.462;7.338;2024-01-30T18:53:04;9.10;99.90
6879;DHT22;3478;51.462;7.338;2024-01-30T18:58:06;9.00;99.90
6879;DHT22;3478;51.462;7.338;2024-01-30T19:03:12;9.00;99.90
6879;DHT22;3478;51.462;7.338;2024-01-30T19:08:15;9.00;99.90
6879;DHT22;3478;51.462;7.338;2024-01-30T19:13:17;8.90;99.90
6879;DHT22;3478;51.462;7.338;2024-01-30T19:18:20;8.90;99.90
6879;DHT22;3478;51.462;7.338;2024-01-30T19:23:22;8.90;99.90
6879;DHT22;3478;51.462;7.338;2024-01-30T19:28:24;8.90;99.90
6879;DHT22;3478;51.462;7.338;2024-01-30T19:33:28;8.90;99.90
6879;DHT22;3478;51.462;7.338;2024-01-30T19:38:30;8.90;99.90
6879;DHT22;3478;51.462;7.338;2024-01-30T19:43:31;8.80;99.90
6879;DHT22;3478;51.462;7.338;2024-01-30T19:48:35;8.80;99.90
6879;DHT22;3478;51.462;7.338;2024-01-30T19:53:37;8.70;99.90
6879;DHT22;3478;51.462;7.338;2024-01-30T19:58:39;8.70;99.90
6879;DHT22;3478;51.462;7.338;2024-01-30T20:03:42;8.70;99.90
6879;DHT22;3478;51.462;7.338;2024-01-30T20:08:44;8.60;99.90
6879;DHT22;3478;51.462;7.338;2024-01-30T20:13:46;8.60;99.90
6879;DHT22;3478;51.462;7.338;2024-01-30T20:18:49;8.50;99.90
6879;DHT22;3478;51.462;7.338;2024-01-30T20:23:51;8.50;99.90
6879;DHT22;3478;51.462;7.338;2024-01-30T20:28:53;8.50;99.90
6879;DHT22;3478;51.462;7.338;2024-01-30T20:33:57;8.40;99.90
6879;DHT22;3478;51.462;7.338;2024-01-30T20:38:59;8.40;99.90
6879;DHT22;3478;51.462;7.338;2024-01-30T20:44:01;8.30;99.90
6879;DHT22;3478;51.462;7.338;2024-01-30T20:49:04;8.30;99.90
6879;DHT22;3478;51.462;7.338;2024-01-30T20:54:06;8.30;99.90
6879;DHT22;3478;51.462;7.338;2024-01-30T20:59:07;8.20;99.90
6879;DHT22;3478;51.462;7.338;2024-01-30T21:04:11;8.20;99.90
6879;DHT22;3478;51.462;7.338;2024-01-30T21:09:12;8.20;99.90
6879;DHT22;3478;51.462;7.338;2024-01-30T21:14:14;8.20;99.90
6879;DHT22;3478;51.462;7.338;2024-01-30T21:19:18;8.20;99.90
6879;DHT22;3478;51.462;7.338;2024-01-30T21:24:20;8.20;99.90
6879;DHT22;3478;51.462;7.338;2024-01-30T21:29:21;8.20;99.90
6879;DHT22;3478;51.462;7.338;2024-01-30T21:34:25;8.20;99.90
6879;DHT22;3478;51.462;7.338;2024-01-30T21:39:27;8.20;99.90
6879;DHT22;3478;51.462;7.338;2024-01-30T21:44:28;8.20;99.90
6879;DHT22;3478;51.462;7.338;2024-01-30T21:49:32;8.10;99.90
6879;DHT22;3478;51.462;7.338;2024-01-30T21:54:34;8.10;99.90
6879;DHT22;3478;51.462;7.338;2024-01-30T21:59:35;8.10;99.90
6879;DHT22;3478;51.462;7.338;2024-01-30T22:04:39;8.10;99.90
6879;DHT22;3478;51.462;7.338;2024-01-30T22:09:41;8.00;99.90
6879;DHT22;3478;51.462;7.338;2024-01-30T22:14:43;8.00;99.90
6879;DHT22;3478;51.462;7.338;2024-01-30T22:19:46;8.00;99.90
6879;DHT22;3478;51.462;7.338;2024-01-30T22:24:48;8.00;99.90
6879;DHT22;3478;51.462;7.338;2024-01-30T22:29:51;8.10;99.90
6879;DHT22;3478;51.462;7.338;2024-01-30T22:34:54;8.00;99.90
6879;DHT22;3478;51.462;7.338;2024-01-30T22:39:56;8.00;99.90
6879;DHT22;3478;51.462;7.338;2024-01-30T22:44:58;8.00;99.90
6879;DHT22;3478;51.462;7.338;2024-01-30T22:50:01;8.00;99.90
6879;DHT22;3478;51.462;7.338;2024-01-30T22:55:05;7.90;99.90
6879;DHT22;3478;51.462;7.338;2024-01-30T23:00:08;7.90;99.90
6879;DHT22;3478;51.462;7.338;2024-01-30T23:05:15;7.80;99.90
6879;DHT22;3478;51.462;7.338;2024-01-30T23:10:17;7.80;99.90
6879;DHT22;3478;51.462;7.338;2024-01-30T23:15:19;7.80;99.90
6879;DHT22;3478;51.462;7.338;2024-01-30T23:20:23;7.80;99.90
6879;DHT22;3478;51.462;7.338;2024-01-30T23:25:25;7.80;99.90
6879;DHT22;3478;51.462;7.338;2024-01-30T23:30:27;7.80;99.90
6879;DHT22;3478;51.462;7.338;2024-01-30T23:35:30;7.70;99.90
6879;DHT22;3478;51.462;7.338;2024-01-30T23:40:32;7.70;99.90
6879;DHT22;3478;51.462;7.338;2024-01-30T23:45:33;7.60;99.90
6879;DHT22;3478;51.462;7.338;2024-01-30T23:50:37;7.70;99.90
6879;DHT22;3478;51.462;7.338;2024-01-30T23:55:38;7.50;99.90
